Time;durP1;ratioP1;P1;durP2;ratioP2;P2;SDS_P1;SDS_P2;PMS_P1;PMS_P2;Temp;Humidity;BMP_temperature;BMP_pressure;BME280_temperature;BME280_humidity;BME280_pressure;Samples;Min_cycle;Max_cycle;Signal;HPM_P1;HPM_P2
2023/03/07 00:01:22;;;;;;;8.98;6.25;;;1.70;99.90;;;;;;4977289;28;20203;-70
2023/03/07 00:03:49;;;;;;;6.70;5.68;;;1.70;99.90;;;;;;4977304;28;20224;-70
2023/03/07 00:06:17;;;;;;;7.75;4.55;;;1.70;99.90;;;;;;4981843;28;20204;-71
2023/03/07 00:08:44;;;;;;;7.30;4.97;;;1.60;99.90;;;;;;4982109;28;20562;-72
2023/03/07 00:11:10;;;;;;;6.43;4.68;;;1.60;99.90;;;;;;4980299;28;20565;-72
2023/03/07 00:13:38;;;;;;;7.80;4.57;;;1.60;99.90;;;;;;4980046;28;20223;-70
2023/03/07 00:16:06;;;;;;;9.38;4.95;;;1.60;99.90;;;;;;4978236;28;20200;-71
2023/03/07 00:18:34;;;;;;;6.18;3.38;;;1.60;99.90;;;;;;4979249;28;20582;-70
2023/03/07 00:21:04;;;;;;;5.30;4.50;;;1.60;99.90;;;;;;4979092;28;20210;-71
2023/03/07 00:23:33;;;;;;;8.18;4.30;;;1.60;99.90;;;;;;4978949;28;20230;-70
2023/03/07 00:26:02;;;;;;;6.28;5.28;;;1.60;99.90;;;;;;4978172;28;20199;-70
2023/03/07 00:28:30;;;;;;;10.02;5.07;;;1.60;99.90;;;;;;4978357;28;20258;-71
2023/03/07 00:31:00;;;;;;;10.98;5.70;;;1.60;99.90;;;;;;4977566;28;20224;-71
2023/03/07 00:33:27;;;;;;;8.85;4.70;;;1.60;99.90;;;;;;4977657;28;20226;-71
2023/03/07 00:35:58;;;;;;;6.45;4.90;;;1.60;99.90;;;;;;4977295;28;20211;-71
2023/03/07 00:38:25;;;;;;;8.13;4.80;;;1.70;99.90;;;;;;4977825;28;20204;-70
2023/03/07 00:41:01;;;;;;;7.90;5.70;;;1.60;99.90;;;;;;4977252;28;20200;-71
2023/03/07 00:43:28;;;;;;;6.93;4.97;;;1.70;99.90;;;;;;4976578;28;20219;-71
2023/03/07 00:45:55;;;;;;;7.35;4.93;;;1.60;99.90;;;;;;4976819;28;20215;-71
2023/03/07 00:48:23;;;;;;;7.75;4.30;;;1.60;99.90;;;;;;4975518;28;20211;-71
2023/03/07 00:50:51;;;;;;;6.85;4.50;;;1.70;99.90;;;;;;4977181;28;20228;-71
2023/03/07 00:53:18;;;;;;;6.75;5.20;;;1.70;99.90;;;;;;4976482;28;20234;-71
2023/03/07 00:55:54;;;;;;;5.97;4.45;;;1.60;99.90;;;;;;4975786;28;20215;-72
2023/03/07 00:58:22;;;;;;;8.45;5.45;;;1.70;99.90;;;;;;4976255;28;20203;-71
2023/03/07 01:00:49;;;;;;;12.35;5.43;;;1.70;99.90;;;;;;4975911;28;20207;-70
2023/03/07 01:03:16;;;;;;;4.22;3.80;;;1.70;99.90;;;;;;4975556;28;20227;-69
2023/03/07 01:05:43;;;;;;;7.35;4.75;;;1.70;99.90;;;;;;4976032;28;20581;-71
2023/03/07 01:08:09;;;;;;;6.63;3.72;;;1.70;99.90;;;;;;4976780;28;20211;-71
2023/03/07 01:10:37;;;;;;;8.18;5.70;;;1.60;99.90;;;;;;4976714;28;20220;-70
2023/03/07 01:13:04;;;;;;;7.82;5.45;;;1.60;99.90;;;;;;4976353;28;20281;-71
2023/03/07 01:15:33;;;;;;;5.20;3.80;;;1.60;99.90;;;;;;4976487;28;20207;-70
2023/03/07 01:18:00;;;;;;;4.95;4.03;;;1.60;99.90;;;;;;4976618;28;20693;-72
2023/03/07 01:20:26;;;;;;;6.13;4.53;;;1.60;99.90;;;;;;4976847;28;20207;-71
2023/03/07 01:22:53;;;;;;;7.30;4.18;;;1.60;99.90;;;;;;4976023;28;20220;-71
2023/03/07 01:25:20;;;;;;;8.68;5.38;;;1.60;99.90;;;;;;4976480;28;20210;-71
2023/03/07 01:27:47;;;;;;;5.47;4.72;;;1.60;99.90;;;;;;4976827;28;20208;-71
2023/03/07 01:30:14;;;;;;;9.90;5.43;;;1.60;99.90;;;;;;4976959;28;20215;-70
2023/03/07 01:32:42;;;;;;;5.43;3.22;;;1.60;99.90;;;;;;4976608;28;20594;-71
2023/03/07 01:35:09;;;;;;;6.65;4.70;;;1.70;99.90;;;;;;4976495;28;20207;-71
2023/03/07 01:37:36;;;;;;;9.05;4.93;;;1.70;99.90;;;;;;4976830;28;20298;-71
2023/03/07 01:40:04;;;;;;;4.35;3.95;;;1.70;99.90;;;;;;4976633;28;20271;-71
2023/03/07 01:42:31;;;;;;;5.90;4.10;;;1.70;99.90;;;;;;4976498;28;20565;-70
2023/03/07 01:45:03;;;;;;;8.60;4.78;;;1.70;99.90;;;;;;4977064;28;20211;-71
2023/03/07 01:47:30;;;;;;;8.25;4.97;;;1.70;99.90;;;;;;4980201;28;20199;-70
2023/03/07 01:50:02;;;;;;;8.40;5.25;;;1.70;99.90;;;;;;4974815;28;20207;-70
2023/03/07 01:52:32;;;;;;;9.23;4.65;;;1.70;99.90;;;;;;4974868;28;20203;-70
2023/03/07 01:55:02;;;;;;;7.07;4.25;;;1.80;99.90;;;;;;4974099;28;20217;-70
2023/03/07 01:57:33;;;;;;;5.75;4.05;;;1.80;99.90;;;;;;4978897;28;20626;-71
2023/03/07 02:00:04;;;;;;;8.27;4.22;;;1.80;99.90;;;;;;4981385;28;20219;-71
2023/03/07 02:02:31;;;;;;;6.35;4.90;;;1.80;99.90;;;;;;4979710;28;20241;-70
2023/03/07 02:05:05;;;;;;;6.95;4.55;;;1.80;99.90;;;;;;4978408;28;20214;-71
2023/03/07 02:07:37;;;;;;;6.85;4.93;;;1.80;99.90;;;;;;4978633;28;20207;-70
2023/03/07 02:10:05;;;;;;;9.30;5.20;;;1.80;99.90;;;;;;4977901;28;20577;-70
2023/03/07 02:12:32;;;;;;;4.93;4.05;;;1.80;99.90;;;;;;4979657;28;20348;-69
2023/03/07 02:14:58;;;;;;;7.55;5.03;;;1.80;99.90;;;;;;4980269;28;20219;-71
2023/03/07 02:17:26;;;;;;;5.25;3.92;;;1.90;99.90;;;;;;4979975;28;20204;-71
2023/03/07 02:20:04;;;;;;;9.90;4.38;;;1.90;99.90;;;;;;4978407;28;20291;-71
2023/03/07 02:22:31;;;;;;;5.50;4.18;;;1.90;99.90;;;;;;4977669;28;20250;-70
2023/03/07 02:25:02;;;;;;;9.85;5.22;;;1.90;99.90;;;;;;4976308;28;20210;-71
2023/03/07 02:27:33;;;;;;;8.02;5.07;;;1.90;99.90;;;;;;4976615;28;20663;-70
2023/03/07 02:30:00;;;;;;;9.45;4.88;;;2.00;99.90;;;;;;4974531;28;20200;-71
2023/03/07 02:32:27;;;;;;;9.07;5.30;;;1.90;99.90;;;;;;4974705;28;20220;-71
2023/03/07 02:34:53;;;;;;;5.70;4.60;;;1.90;99.90;;;;;;4975143;28;20210;-70
2023/03/07 02:37:24;;;;;;;8.43;5.15;;;1.90;99.90;;;;;;4975708;28;20200;-71
2023/03/07 02:39:53;;;;;;;8.43;5.15;;;1.90;99.90;;;;;;4975481;28;20275;-70
2023/03/07 02:42:23;;;;;;;9.73;5.75;;;1.90;99.90;;;;;;4975585;28;20664;-70
2023/03/07 02:44:58;;;;;;;7.47;5.20;;;1.90;99.90;;;;;;4974407;28;20232;-70
2023/03/07 02:47:26;;;;;;;8.65;4.80;;;1.90;99.90;;;;;;4975254;28;20211;-71
2023/03/07 02:49:52;;;;;;;6.78;3.85;;;1.90;99.90;;;;;;4974826;28;20204;-70
2023/03/07 02:52:20;;;;;;;8.55;4.90;;;1.90;99.90;;;;;;4975077;28;20215;-71
2023/03/07 02:54:47;;;;;;;8.77;5.07;;;1.90;99.90;;;;;;4974567;28;20223;-70
2023/03/07 02:57:14;;;;;;;8.68;5.22;;;1.80;99.90;;;;;;4975136;28;20200;-71
2023/03/07 02:59:41;;;;;;;9.13;4.60;;;1.80;99.90;;;;;;4974820;28;20204;-70
2023/03/07 03:02:09;;;;;;;6.03;4.20;;;1.80;99.90;;;;;;4974799;28;20195;-70
2023/03/07 03:04:35;;;;;;;7.95;5.07;;;1.70;99.90;;;;;;4974616;28;20223;-71
2023/03/07 03:07:02;;;;;;;7.90;4.55;;;1.70;99.90;;;;;;4975003;28;20212;-71
2023/03/07 03:09:30;;;;;;;6.13;5.13;;;1.70;99.90;;;;;;4975074;28;20208;-70
2023/03/07 03:11:57;;;;;;;7.68;5.38;;;1.60;99.90;;;;;;4975576;28;20215;-71
2023/03/07 03:14:24;;;;;;;7.28;4.55;;;1.60;99.90;;;;;;4977292;28;20226;-70
2023/03/07 03:16:52;;;;;;;8.00;4.53;;;1.60;99.90;;;;;;4978040;28;20226;-71
2023/03/07 03:19:21;;;;;;;5.78;4.57;;;1.60;99.90;;;;;;4977759;28;20212;-71
2023/03/07 03:21:47;;;;;;;7.65;5.25;;;1.60;99.90;;;;;;4977837;28;20200;-71
2023/03/07 03:24:14;;;;;;;11.18;4.35;;;1.60;99.90;;;;;;4977057;28;20538;-69
2023/03/07 03:26:41;;;;;;;5.45;4.22;;;1.60;99.90;;;;;;4977779;28;20207;-70
2023/03/07 03:29:08;;;;;;;6.45;4.05;;;1.60;99.90;;;;;;4977707;28;20203;-71
2023/03/07 03:31:35;;;;;;;6.70;4.57;;;1.60;99.90;;;;;;4978379;28;20238;-70
2023/03/07 03:34:03;;;;;;;7.45;4.68;;;1.60;99.90;;;;;;4977068;28;20219;-71
2023/03/07 03:36:32;;;;;;;10.02;5.72;;;1.60;99.90;;;;;;4977795;28;20878;-72
2023/03/07 03:38:59;;;;;;;7.95;5.13;;;1.70;99.90;;;;;;4977139;28;20211;-70
2023/03/07 03:41:26;;;;;;;8.10;5.32;;;1.70;99.90;;;;;;4977347;28;20199;-71
2023/03/07 03:43:53;;;;;;;6.25;4.57;;;1.70;99.90;;;;;;4976386;28;20227;-70
2023/03/07 03:46:20;;;;;;;11.23;5.25;;;1.80;99.90;;;;;;4976744;28;20204;-71
2023/03/07 03:48:52;;;;;;;6.80;4.95;;;1.70;99.90;;;;;;4980641;28;20207;-71
2023/03/07 03:51:19;;;;;;;9.07;5.57;;;1.80;99.90;;;;;;4979507;28;20621;-72
2023/03/07 03:53:47;;;;;;;7.57;5.80;;;1.80;99.90;;;;;;4977993;28;20753;-71
2023/03/07 03:56:15;;;;;;;7.07;5.13;;;1.80;99.90;;;;;;4977648;28;20200;-71
2023/03/07 03:58:42;;;;;;;8.30;4.88;;;1.70;99.90;;;;;;4977423;28;20208;-70
2023/03/07 04:01:11;;;;;;;6.57;4.60;;;1.80;99.90;;;;;;4977640;28;20200;-70
2023/03/07 04:03:40;;;;;;;15.52;5.53;;;1.80;99.90;;;;;;4977347;28;20314;-70
2023/03/07 04:06:10;;;;;;;10.13;5.43;;;1.80;99.90;;;;;;4957372;28;20196;-70
2023/03/07 04:08:37;;;;;;;8.05;5.80;;;1.80;99.90;;;;;;4973566;28;20211;-70
2023/03/07 04:11:06;;;;;;;8.00;4.60;;;1.80;99.90;;;;;;4977037;28;20218;-71
2023/03/07 04:16:07;;;;;;;9.23;4.60;;;1.70;99.90;;;;;;5000829;28;20215;-93
2023/03/07 04:18:35;;;;;;;7.07;5.10;;;1.70;99.90;;;;;;4999841;28;20213;-92
2023/03/07 04:21:03;;;;;;;10.25;5.80;;;1.70;99.90;;;;;;5009258;28;20222;-91
2023/03/07 04:23:30;;;;;;;10.38;5.60;;;1.70;99.90;;;;;;5000524;28;20199;-92
2023/03/07 04:28:28;;;;;;;8.70;5.82;;;1.70;99.90;;;;;;4957227;28;20215;-69
2023/03/07 04:30:56;;;;;;;7.00;4.63;;;1.70;99.90;;;;;;4956079;28;20694;-69
2023/03/07 04:33:23;;;;;;;9.70;4.82;;;1.70;99.90;;;;;;4972702;28;20255;-69
2023/03/07 04:35:49;;;;;;;8.90;5.88;;;1.70;99.90;;;;;;4961001;28;20739;-69
2023/03/07 04:38:16;;;;;;;7.22;5.47;;;1.70;99.90;;;;;;4954341;28;20201;-69
2023/03/07 04:40:43;;;;;;;8.27;5.47;;;1.70;99.90;;;;;;4954003;28;20208;-70
2023/03/07 04:43:10;;;;;;;7.28;4.88;;;1.70;99.90;;;;;;4953775;28;20217;-69
2023/03/07 04:45:38;;;;;;;5.65;4.28;;;1.70;99.90;;;;;;4954335;28;20215;-69
2023/03/07 04:48:05;;;;;;;7.20;4.93;;;1.70;99.90;;;;;;4954435;28;20570;-69
2023/03/07 04:50:32;;;;;;;10.15;5.05;;;1.70;99.90;;;;;;4954325;28;20205;-70
2023/03/07 04:52:59;;;;;;;8.48;5.32;;;1.70;99.90;;;;;;4953635;28;20236;-70
2023/03/07 04:55:25;;;;;;;6.70;4.25;;;1.70;99.90;;;;;;4953701;28;20208;-69
2023/03/07 04:57:56;;;;;;;8.25;5.90;;;1.70;99.90;;;;;;4964954;28;20671;-69
2023/03/07 05:00:23;;;;;;;8.65;5.95;;;1.70;99.90;;;;;;4972806;28;20306;-68
2023/03/07 05:02:51;;;;;;;10.90;5.57;;;1.70;99.90;;;;;;4973297;28;20219;-70
2023/03/07 05:05:18;;;;;;;9.48;6.03;;;1.70;99.90;;;;;;4971870;28;20314;-70
2023/03/07 05:07:45;;;;;;;13.90;5.75;;;1.70;99.90;;;;;;4969456;28;20212;-70
2023/03/07 05:10:12;;;;;;;15.77;6.00;;;1.70;99.90;;;;;;4969967;28;20210;-71
2023/03/07 05:12:39;;;;;;;9.93;5.55;;;1.70;99.90;;;;;;4964366;28;20222;-70
2023/03/07 05:15:07;;;;;;;8.95;5.45;;;1.70;99.90;;;;;;4963381;28;20200;-69
2023/03/07 05:17:33;;;;;;;5.93;4.68;;;1.70;99.90;;;;;;4965684;28;20206;-69
2023/03/07 05:20:02;;;;;;;12.63;5.90;;;1.70;99.90;;;;;;4964436;28;20411;-69
2023/03/07 05:22:29;;;;;;;7.32;4.43;;;1.70;99.90;;;;;;4962607;28;20620;-71
2023/03/07 05:24:57;;;;;;;9.45;5.40;;;1.70;99.90;;;;;;4962314;28;20315;-71
2023/03/07 05:27:24;;;;;;;8.55;5.30;;;1.70;99.90;;;;;;4966558;28;20829;-70
2023/03/07 05:29:50;;;;;;;7.60;5.15;;;1.70;99.90;;;;;;4964439;28;20219;-69
2023/03/07 05:32:17;;;;;;;9.88;5.40;;;1.70;99.90;;;;;;4971841;28;20212;-69
2023/03/07 05:34:45;;;;;;;7.53;4.50;;;1.80;99.90;;;;;;4953710;28;20224;-72
2023/03/07 05:37:14;;;;;;;7.78;5.25;;;1.80;99.90;;;;;;4957418;28;20201;-69
2023/03/07 05:39:41;;;;;;;4.80;3.80;;;1.90;99.90;;;;;;4950025;28;20211;-69
2023/03/07 05:42:08;;;;;;;8.20;5.15;;;1.90;99.90;;;;;;4961470;28;20192;-70
2023/03/07 05:44:35;;;;;;;7.35;4.90;;;1.90;99.90;;;;;;4969322;28;20224;-70
2023/03/07 05:47:01;;;;;;;7.60;4.25;;;1.90;99.90;;;;;;4950771;28;20213;-68
2023/03/07 05:49:28;;;;;;;7.68;4.70;;;1.80;99.90;;;;;;4951143;28;20208;-70
2023/03/07 05:51:55;;;;;;;6.43;4.32;;;1.80;99.90;;;;;;4952434;28;20232;-69
2023/03/07 05:54:23;;;;;;;7.50;4.85;;;1.80;99.90;;;;;;4954482;28;20372;-69
2023/03/07 05:56:50;;;;;;;5.47;4.05;;;1.80;99.90;;;;;;4966808;28;20826;-70
2023/03/07 05:59:17;;;;;;;8.43;4.80;;;1.80;99.90;;;;;;4971872;28;20223;-70
2023/03/07 06:01:43;;;;;;;7.05;5.03;;;1.80;99.90;;;;;;4971624;28;20667;-71
2023/03/07 06:04:10;;;;;;;9.00;4.53;;;1.80;99.90;;;;;;4971216;28;20224;-71
2023/03/07 06:06:37;;;;;;;8.20;4.70;;;1.70;99.90;;;;;;4964061;28;20199;-77
2023/03/07 06:09:04;;;;;;;7.82;4.63;;;1.70;99.90;;;;;;4971410;28;20200;-71
2023/03/07 06:11:32;;;;;;;4.47;3.55;;;1.80;99.90;;;;;;4971719;28;20207;-70
2023/03/07 06:13:59;;;;;;;6.82;4.25;;;1.80;99.90;;;;;;4971013;28;20223;-70
2023/03/07 06:16:26;;;;;;;9.25;4.20;;;1.80;99.90;;;;;;4971694;28;20215;-71
2023/03/07 06:18:52;;;;;;;7.82;4.50;;;1.80;99.90;;;;;;4961952;28;20211;-68
2023/03/07 06:21:19;;;;;;;10.43;5.65;;;1.80;99.90;;;;;;4952231;28;20203;-71
2023/03/07 06:23:46;;;;;;;6.22;4.40;;;1.80;99.90;;;;;;4951926;28;20731;-71
2023/03/07 06:26:13;;;;;;;7.55;4.95;;;1.80;99.90;;;;;;4951889;28;20200;-70
2023/03/07 06:28:42;;;;;;;8.18;4.88;;;1.80;99.90;;;;;;4960381;28;20581;-73
2023/03/07 06:31:10;;;;;;;9.05;5.68;;;1.80;99.90;;;;;;4971566;28;20206;-69
2023/03/07 06:33:37;;;;;;;10.65;5.60;;;1.80;99.90;;;;;;4971287;28;20224;-69
2023/03/07 06:36:06;;;;;;;7.72;4.38;;;1.80;99.90;;;;;;4963311;28;20204;-69
2023/03/07 06:38:33;;;;;;;7.50;4.80;;;1.80;99.90;;;;;;4971518;28;20207;-69
2023/03/07 06:41:00;;;;;;;9.10;4.45;;;1.80;99.90;;;;;;4953039;28;20581;-69
2023/03/07 06:43:26;;;;;;;7.40;4.68;;;1.90;99.90;;;;;;4965991;28;20224;-68
2023/03/07 06:45:54;;;;;;;12.35;5.07;;;1.90;99.90;;;;;;4971044;28;20542;-69
2023/03/07 06:48:21;;;;;;;9.43;5.38;;;1.90;99.90;;;;;;4974826;28;20690;-68
2023/03/07 06:50:48;;;;;;;9.07;4.25;;;2.00;99.90;;;;;;4967541;28;20206;-70
2023/03/07 06:53:15;;;;;;;6.18;5.03;;;2.10;99.90;;;;;;4975184;28;20315;-70
2023/03/07 06:55:41;;;;;;;8.43;4.68;;;2.10;99.90;;;;;;4966862;28;20215;-69
2023/03/07 06:58:08;;;;;;;8.73;4.85;;;2.10;99.90;;;;;;4967604;28;20674;-70
2023/03/07 07:00:35;;;;;;;5.43;4.07;;;2.20;99.90;;;;;;4960906;28;20208;-70
2023/03/07 07:03:03;;;;;;;9.57;5.07;;;2.30;99.90;;;;;;4955581;28;20235;-71
2023/03/07 07:05:30;;;;;;;8.27;5.00;;;2.30;99.90;;;;;;4955706;28;20200;-71
2023/03/07 07:07:56;;;;;;;7.78;5.10;;;2.40;99.90;;;;;;4955687;28;20204;-70
2023/03/07 07:10:23;;;;;;;5.50;4.03;;;2.40;99.90;;;;;;4955480;28;20208;-72
2023/03/07 07:12:53;;;;;;;6.68;4.90;;;2.50;99.90;;;;;;4955346;28;20224;-70
2023/03/07 07:15:20;;;;;;;10.95;5.45;;;2.60;99.90;;;;;;4960422;28;20587;-70
2023/03/07 07:17:46;;;;;;;8.02;4.88;;;2.60;99.90;;;;;;4975060;28;20248;-70
2023/03/07 07:20:15;;;;;;;5.97;4.13;;;2.70;99.90;;;;;;4974894;28;20203;-70
2023/03/07 07:22:41;;;;;;;5.55;4.07;;;2.70;99.90;;;;;;4974536;28;20207;-70
2023/03/07 07:25:09;;;;;;;8.00;4.85;;;2.70;99.90;;;;;;4962795;28;20201;-70
2023/03/07 07:27:36;;;;;;;6.80;4.28;;;2.90;99.90;;;;;;4971019;28;20586;-70
2023/03/07 07:30:03;;;;;;;6.93;4.70;;;3.00;99.90;;;;;;4964077;28;20232;-70
2023/03/07 07:32:30;;;;;;;6.35;4.55;;;3.10;99.90;;;;;;4961871;28;20265;-73
2023/03/07 07:34:56;;;;;;;4.63;3.60;;;3.20;99.90;;;;;;4966592;28;20208;-69
2023/03/07 07:37:24;;;;;;;9.77;4.47;;;3.20;99.90;;;;;;4966722;28;20206;-72
2023/03/07 07:39:51;;;;;;;7.55;4.55;;;3.20;99.90;;;;;;4956571;28;20230;-70
2023/03/07 07:42:18;;;;;;;7.30;4.57;;;3.20;99.90;;;;;;4971212;28;20200;-71
2023/03/07 07:44:47;;;;;;;6.60;4.22;;;3.30;99.90;;;;;;4963243;28;20225;-70
2023/03/07 07:47:13;;;;;;;10.93;5.65;;;3.40;99.90;;;;;;4970029;28;20783;-69
2023/03/07 07:49:40;;;;;;;8.27;4.30;;;3.40;99.90;;;;;;4971277;28;20208;-71
2023/03/07 07:52:07;;;;;;;5.68;3.63;;;3.40;99.90;;;;;;4963302;28;20224;-71
2023/03/07 07:54:36;;;;;;;6.97;4.43;;;3.50;99.90;;;;;;4967412;28;20231;-70
2023/03/07 07:57:02;;;;;;;6.85;4.20;;;3.60;99.90;;;;;;4965681;28;20289;-70
2023/03/07 07:59:30;;;;;;;5.75;4.07;;;3.60;99.90;;;;;;4973547;28;20723;-70
2023/03/07 08:01:57;;;;;;;7.05;4.20;;;3.70;99.90;;;;;;4973594;28;20579;-70
2023/03/07 08:04:24;;;;;;;5.85;4.60;;;3.70;99.90;;;;;;4973457;28;20732;-74
2023/03/07 08:06:51;;;;;;;6.57;4.90;;;3.90;99.90;;;;;;4957662;28;20205;-71
2023/03/07 08:09:18;;;;;;;5.60;4.80;;;4.00;99.90;;;;;;4973455;28;20206;-70
2023/03/07 08:11:46;;;;;;;7.18;5.00;;;4.20;99.90;;;;;;4957559;28;20679;-70
2023/03/07 08:14:12;;;;;;;6.65;4.85;;;4.50;99.90;;;;;;4953648;28;20231;-70
2023/03/07 08:16:39;;;;;;;6.10;4.38;;;4.70;99.80;;;;;;4962112;28;20254;-70
2023/03/07 08:19:06;;;;;;;9.57;4.63;;;4.50;99.90;;;;;;4970097;28;20207;-71
2023/03/07 08:21:32;;;;;;;7.88;5.13;;;4.70;99.90;;;;;;4954388;28;20228;-70
2023/03/07 08:23:59;;;;;;;11.50;7.10;;;5.20;99.90;;;;;;4956004;28;20220;-70
2023/03/07 08:26:26;;;;;;;6.43;4.65;;;5.80;99.10;;;;;;4959452;28;20223;-70
2023/03/07 08:28:54;;;;;;;4.40;4.00;;;6.00;98.30;;;;;;4971699;28;20227;-70
2023/03/07 08:31:23;;;;;;;8.13;4.57;;;6.00;98.10;;;;;;4959892;28;20205;-70
2023/03/07 08:33:51;;;;;;;6.07;4.32;;;5.80;98.50;;;;;;4953745;28;20671;-70
2023/03/07 08:36:18;;;;;;;6.85;4.78;;;5.70;98.80;;;;;;4958630;28;20203;-70
2023/03/07 08:38:49;;;;;;;5.57;4.53;;;6.00;98.70;;;;;;4973291;28;20203;-70
2023/03/07 08:41:16;;;;;;;5.32;4.13;;;6.40;98.30;;;;;;4973180;28;20200;-70
2023/03/07 08:43:43;;;;;;;6.60;4.07;;;6.70;97.10;;;;;;4972987;28;20254;-70
2023/03/07 08:46:11;;;;;;;7.10;4.18;;;6.70;97.00;;;;;;4972808;28;20204;-70
2023/03/07 08:48:37;;;;;;;6.03;4.80;;;6.80;97.10;;;;;;4973045;28;20215;-70
2023/03/07 08:51:06;;;;;;;6.45;5.00;;;7.00;96.40;;;;;;4973024;28;20200;-70
2023/03/07 08:53:33;;;;;;;9.50;4.93;;;6.50;96.80;;;;;;4966003;28;20224;-70
2023/03/07 08:56:00;;;;;;;5.30;3.90;;;6.50;97.00;;;;;;4953233;28;20215;-70
2023/03/07 08:58:27;;;;;;;6.35;4.05;;;6.80;97.10;;;;;;4959981;28;20694;-70
2023/03/07 09:00:53;;;;;;;8.02;4.70;;;7.10;96.90;;;;;;4955635;28;20209;-70
2023/03/07 09:03:21;;;;;;;5.72;4.57;;;7.30;96.20;;;;;;4953306;28;20223;-70
2023/03/07 09:05:48;;;;;;;7.57;5.20;;;7.30;96.40;;;;;;4953944;28;20480;-72
2023/03/07 09:08:15;;;;;;;7.45;5.05;;;7.40;96.10;;;;;;4972782;28;20633;-73
2023/03/07 09:10:41;;;;;;;3.50;3.17;;;7.40;95.30;;;;;;4972346;28;20213;-72
2023/03/07 09:13:08;;;;;;;6.43;3.92;;;7.30;95.10;;;;;;4972437;28;20216;-70
2023/03/07 09:15:37;;;;;;;4.60;3.55;;;7.40;95.30;;;;;;4965187;28;20566;-69
2023/03/07 09:18:04;;;;;;;5.40;3.83;;;7.40;94.60;;;;;;4952954;28;20695;-70
2023/03/07 09:20:32;;;;;;;4.88;3.90;;;7.20;94.30;;;;;;4967327;28;20196;-70
2023/03/07 09:22:59;;;;;;;7.15;4.78;;;6.90;94.30;;;;;;4971995;28;20610;-71
2023/03/07 09:25:25;;;;;;;5.45;4.10;;;6.70;94.30;;;;;;4958346;28;20252;-71
2023/03/07 09:27:53;;;;;;;5.28;3.83;;;6.40;94.50;;;;;;4952981;28;20232;-71
2023/03/07 09:30:21;;;;;;;6.32;3.47;;;6.20;94.90;;;;;;4952899;28;20204;-71
2023/03/07 09:32:48;;;;;;;5.93;3.63;;;6.00;94.60;;;;;;4952572;28;20235;-70
2023/03/07 09:35:14;;;;;;;3.85;3.40;;;5.90;95.00;;;;;;4952511;28;20204;-70
2023/03/07 09:37:43;;;;;;;5.18;3.42;;;5.80;95.20;;;;;;4953318;28;20207;-70
2023/03/07 09:40:15;;;;;;;5.25;3.90;;;5.70;95.30;;;;;;4952686;28;20212;-71
2023/03/07 09:42:54;;;;;;;10.75;4.60;;;5.50;95.50;;;;;;4960467;28;20207;-71
2023/03/07 09:45:31;;;;;;;5.65;3.63;;;5.30;95.70;;;;;;4965356;28;20263;-71
2023/03/07 09:48:15;;;;;;;4.25;3.15;;;5.10;96.30;;;;;;4971789;28;20208;-70
2023/03/07 09:50:49;;;;;;;6.03;3.90;;;5.00;96.20;;;;;;4971589;28;20618;-69
2023/03/07 09:53:22;;;;;;;5.07;4.30;;;4.70;96.30;;;;;;4971528;28;20593;-71
2023/03/07 09:55:51;;;;;;;6.63;4.15;;;4.50;96.60;;;;;;4963725;28;20223;-71
2023/03/07 09:58:23;;;;;;;5.70;3.92;;;4.30;97.00;;;;;;4971689;28;20247;-71
2023/03/07 10:00:55;;;;;;;4.93;3.70;;;4.30;97.20;;;;;;4970640;28;20614;-71
2023/03/07 10:03:32;;;;;;;6.72;3.63;;;4.40;97.00;;;;;;4952063;28;20704;-72
2023/03/07 10:06:03;;;;;;;4.80;3.83;;;4.40;97.10;;;;;;4951845;28;20204;-71
2023/03/07 10:08:33;;;;;;;5.00;4.25;;;4.40;97.20;;;;;;4952027;28;20205;-72
2023/03/07 10:11:13;;;;;;;6.22;3.78;;;4.30;97.30;;;;;;4952023;28;20215;-71
2023/03/07 10:16:20;;;;;;;9.13;4.50;;;4.40;97.50;;;;;;5040065;23;20228;-71
2023/03/07 10:19:09;;;;;;;6.93;4.45;;;4.40;97.50;;;;;;4971451;28;20211;-71
2023/03/07 10:21:43;;;;;;;6.30;3.92;;;4.40;97.60;;;;;;4979298;28;20204;-70
2023/03/07 10:24:27;;;;;;;11.07;4.28;;;4.30;97.70;;;;;;4957107;28;20217;-71
2023/03/07 10:27:00;;;;;;;5.32;4.05;;;4.30;97.70;;;;;;4969534;28;20671;-70
2023/03/07 10:29:31;;;;;;;6.22;4.15;;;4.40;97.50;;;;;;4971266;28;20684;-71
2023/03/07 10:32:10;;;;;;;6.47;4.03;;;4.40;97.30;;;;;;4960848;28;20211;-72
2023/03/07 10:34:38;;;;;;;5.95;4.43;;;4.30;97.40;;;;;;4967129;28;20223;-72
2023/03/07 10:37:13;;;;;;;7.28;4.18;;;4.30;97.60;;;;;;4970929;28;20200;-70
2023/03/07 10:39:49;;;;;;;6.63;4.25;;;4.40;97.50;;;;;;4971337;28;20210;-71
2023/03/07 10:42:19;;;;;;;8.05;4.03;;;4.50;97.40;;;;;;4951564;28;20207;-71
2023/03/07 10:44:47;;;;;;;7.57;3.88;;;4.40;97.20;;;;;;4951289;28;20223;-71
2023/03/07 10:47:20;;;;;;;7.00;3.65;;;4.40;96.70;;;;;;4953228;28;20259;-70
2023/03/07 10:49:49;;;;;;;4.63;3.67;;;4.30;96.90;;;;;;4951581;28;20560;-70
2023/03/07 10:52:27;;;;;;;4.00;3.60;;;4.30;96.90;;;;;;4951519;28;20204;-70
2023/03/07 10:55:12;;;;;;;6.28;4.55;;;4.20;96.80;;;;;;4951089;28;20302;-69
2023/03/07 10:57:38;;;;;;;5.65;3.95;;;4.20;96.60;;;;;;4957580;28;20216;-69
2023/03/07 11:00:15;;;;;;;4.78;3.10;;;4.20;96.80;;;;;;4951726;28;20254;-71
2023/03/07 11:02:44;;;;;;;3.22;2.85;;;4.30;96.80;;;;;;4967962;28;20211;-70
2023/03/07 11:05:26;;;;;;;8.65;3.53;;;4.40;96.30;;;;;;4955442;28;20203;-68
2023/03/07 11:07:53;;;;;;;6.40;3.97;;;4.50;96.50;;;;;;4961574;28;20270;-69
2023/03/07 11:10:36;;;;;;;5.30;4.00;;;4.50;96.50;;;;;;4956750;28;20203;-69
2023/03/07 11:13:07;;;;;;;5.95;3.47;;;4.40;96.40;;;;;;4959615;28;20247;-69
2023/03/07 11:15:34;;;;;;;4.15;3.53;;;4.30;96.00;;;;;;4951138;28;20698;-71
2023/03/07 11:18:00;;;;;;;6.38;4.28;;;4.20;95.80;;;;;;4951363;28;20204;-69
2023/03/07 11:20:29;;;;;;;5.60;3.83;;;4.20;96.10;;;;;;4951887;28;20208;-69
2023/03/07 11:23:14;;;;;;;6.47;3.92;;;4.20;95.90;;;;;;4952910;28;20228;-70
2023/03/07 11:25:42;;;;;;;4.63;3.65;;;4.30;95.90;;;;;;4963143;28;20215;-69
2023/03/07 11:28:26;;;;;;;5.93;3.88;;;4.40;95.60;;;;;;4951936;28;20204;-70
2023/03/07 11:30:57;;;;;;;5.28;3.75;;;4.40;95.30;;;;;;4952497;28;20224;-69
2023/03/07 11:33:27;;;;;;;10.75;4.45;;;4.50;95.00;;;;;;4972238;28;20227;-69
2023/03/07 11:36:01;;;;;;;4.72;3.05;;;4.50;95.10;;;;;;4973573;28;20211;-70
2023/03/07 11:38:51;;;;;;;6.47;4.30;;;4.50;94.70;;;;;;4974288;28;20211;-69
2023/03/07 11:41:25;;;;;;;8.00;4.03;;;4.60;94.40;;;;;;4974133;28;20667;-70
2023/03/07 11:44:02;;;;;;;5.40;4.00;;;4.60;94.60;;;;;;4973228;28;20728;-69
2023/03/07 11:46:41;;;;;;;7.57;4.50;;;4.60;94.70;;;;;;4974085;28;20199;-69
2023/03/07 11:49:22;;;;;;;5.38;4.10;;;4.60;94.10;;;;;;4954637;28;20200;-69
2023/03/07 11:52:00;;;;;;;3.50;3.05;;;4.60;94.20;;;;;;4954391;28;20204;-70
2023/03/07 11:54:32;;;;;;;13.77;3.53;;;4.50;94.10;;;;;;4954216;28;20216;-68
2023/03/07 11:57:12;;;;;;;4.57;3.10;;;4.60;94.20;;;;;;4972628;28;20208;-69
2023/03/07 11:59:57;;;;;;;4.65;3.40;;;4.50;93.80;;;;;;4973937;28;20203;-69
2023/03/07 12:02:41;;;;;;;5.85;3.58;;;4.50;93.80;;;;;;4968182;28;20692;-68
2023/03/07 12:05:32;;;;;;;4.63;3.50;;;4.50;94.00;;;;;;4953862;28;20213;-69
2023/03/07 12:08:20;;;;;;;5.63;3.70;;;4.50;94.30;;;;;;4957473;28;20595;-69
2023/03/07 12:10:57;;;;;;;5.70;4.32;;;4.50;94.40;;;;;;4965574;28;20199;-68
2023/03/07 12:13:36;;;;;;;6.95;3.65;;;4.50;94.30;;;;;;4964427;28;20244;-69
2023/03/07 12:16:12;;;;;;;7.50;4.30;;;4.50;94.10;;;;;;4972793;28;20255;-69
2023/03/07 12:18:59;;;;;;;7.32;4.55;;;4.40;94.20;;;;;;4966342;28;20214;-69
2023/03/07 12:21:51;;;;;;;5.80;3.92;;;4.30;94.60;;;;;;4966045;28;20207;-70
2023/03/07 12:24:22;;;;;;;5.00;3.85;;;4.30;94.40;;;;;;4962647;28;20216;-72
2023/03/07 12:26:56;;;;;;;5.65;4.10;;;4.30;94.30;;;;;;4955436;28;20263;-71
2023/03/07 12:29:34;;;;;;;6.15;4.35;;;4.40;94.50;;;;;;4968217;28;20204;-69
2023/03/07 12:32:06;;;;;;;5.47;3.90;;;4.50;94.60;;;;;;4964143;28;20687;-70
2023/03/07 12:34:38;;;;;;;6.25;3.58;;;4.60;94.20;;;;;;4966649;28;20263;-71
2023/03/07 12:37:07;;;;;;;6.28;4.15;;;4.60;94.20;;;;;;4970204;28;20204;-72
2023/03/07 12:39:45;;;;;;;7.55;4.22;;;4.60;94.00;;;;;;4962445;28;20208;-71
2023/03/07 12:42:17;;;;;;;7.82;3.97;;;4.80;94.30;;;;;;4966256;28;20702;-70
2023/03/07 12:44:49;;;;;;;5.40;3.95;;;4.90;93.90;;;;;;4973152;28;20754;-73
2023/03/07 12:47:23;;;;;;;6.30;3.08;;;5.10;93.80;;;;;;4961018;28;20735;-71
2023/03/07 12:49:55;;;;;;;6.13;4.10;;;5.10;93.60;;;;;;4962563;28;20200;-71
2023/03/07 12:52:30;;;;;;;5.50;3.47;;;5.10;93.40;;;;;;4968135;28;20351;-71
2023/03/07 12:55:02;;;;;;;5.90;4.22;;;5.00;93.70;;;;;;4952985;28;20220;-71
2023/03/07 12:57:32;;;;;;;4.95;3.60;;;4.90;93.50;;;;;;4968247;28;20195;-70
2023/03/07 13:00:07;;;;;;;5.20;3.88;;;4.90;93.70;;;;;;4954605;28;20212;-69
2023/03/07 13:02:41;;;;;;;6.75;3.55;;;4.90;93.90;;;;;;4961828;28;20199;-69
2023/03/07 13:05:18;;;;;;;5.25;3.67;;;5.00;94.00;;;;;;4953204;28;20196;-70
2023/03/07 13:07:46;;;;;;;5.10;3.72;;;5.10;93.80;;;;;;4962106;28;20626;-71
2023/03/07 13:10:18;;;;;;;5.88;3.03;;;5.20;93.50;;;;;;4968782;28;20208;-71
2023/03/07 13:12:45;;;;;;;3.80;3.05;;;5.20;93.40;;;;;;4961689;28;20216;-69
2023/03/07 13:15:41;;;;;;;6.38;4.15;;;5.20;93.50;;;;;;4953095;28;20220;-70